createdAt,value
2018-02-18T00:00:51.636Z,19.73
2018-02-18T00:03:19.479Z,25.48
2018-02-18T00:05:45.891Z,28.87
2018-02-18T00:08:12.328Z,30.40
2018-02-18T00:10:38.721Z,30.95
2018-02-18T00:13:05.755Z,30.70
2018-02-18T00:15:32.981Z,25.70
2018-02-18T00:17:59.374Z,23.95
2018-02-18T00:20:26.541Z,21.67
2018-02-18T00:22:52.991Z,20.00
2018-02-18T00:25:19.945Z,18.70
2018-02-18T00:27:47.101Z,19.15
2018-02-18T00:30:14.259Z,17.55
2018-02-18T00:32:40.683Z,18.42
2018-02-18T00:35:07.351Z,17.15
2018-02-18T00:37:33.734Z,17.00
2018-02-18T00:40:00.176Z,15.88
2018-02-18T00:42:26.664Z,17.60
2018-02-18T00:44:53.050Z,17.95
2018-02-18T00:47:20.307Z,19.35
2018-02-18T00:49:46.749Z,16.67
2018-02-18T00:52:13.223Z,17.55
2018-02-18T00:54:39.608Z,17.27
2018-02-18T00:57:06.951Z,16.42
2018-02-18T00:59:34.855Z,18.35
2018-02-18T01:02:01.274Z,16.37
2018-02-18T01:04:28.453Z,14.70
2018-02-18T01:06:55.648Z,16.35
2018-02-18T01:09:22.786Z,16.08
2018-02-18T01:11:49.316Z,16.25
2018-02-18T01:14:16.480Z,18.50
2018-02-18T01:16:42.939Z,16.05
2018-02-18T01:19:10.110Z,15.25
2018-02-18T01:21:36.545Z,17.83
2018-02-18T01:24:04.518Z,18.02
2018-02-18T01:26:31.726Z,17.65
2018-02-18T01:28:58.159Z,19.55
2018-02-18T01:31:24.575Z,18.87
2018-02-18T01:33:51.023Z,16.80
2018-02-18T01:36:18.158Z,17.55
2018-02-18T01:38:44.577Z,16.15
2018-02-18T01:41:11.027Z,17.50
2018-02-18T01:43:38.218Z,17.98
2018-02-18T01:46:05.341Z,17.37
2018-02-18T01:48:31.803Z,15.90
2018-02-18T01:51:04.782Z,15.93
2018-02-18T01:53:32.300Z,14.90
2018-02-18T01:55:58.731Z,15.30
2018-02-18T01:58:25.883Z,15.40
2018-02-18T02:00:53.276Z,17.52
2018-02-18T02:03:19.682Z,15.63
2018-02-18T02:05:46.858Z,16.12
2018-02-18T02:08:13.999Z,14.25
2018-02-18T02:10:40.402Z,16.83
2018-02-18T02:13:07.115Z,16.00
2018-02-18T02:15:34.248Z,16.77
2018-02-18T02:18:00.657Z,16.35
2018-02-18T02:20:27.142Z,19.35
2018-02-18T02:22:53.547Z,16.33
2018-02-18T02:25:19.950Z,15.70
2018-02-18T02:27:47.132Z,14.63
2018-02-18T02:30:13.550Z,16.85
2018-02-18T02:32:39.993Z,15.40
2018-02-18T02:35:07.527Z,15.52
2018-02-18T02:37:33.962Z,15.52
2018-02-18T02:40:00.591Z,16.75
2018-02-18T02:42:27.023Z,17.45
2018-02-18T02:44:53.461Z,16.95
2018-02-18T02:47:19.876Z,14.23
2018-02-18T02:49:46.403Z,14.85
2018-02-18T02:52:12.806Z,17.10
2018-02-18T02:54:39.282Z,15.40
2018-02-18T02:57:06.068Z,14.48
2018-02-18T02:59:32.546Z,13.90
2018-02-18T03:01:58.991Z,15.82
2018-02-18T03:04:25.440Z,14.93
2018-02-18T03:06:51.855Z,14.15
2018-02-18T03:09:18.273Z,13.55
2018-02-18T03:11:44.811Z,13.75
2018-02-18T03:14:11.977Z,15.35
2018-02-18T03:16:45.463Z,14.18
2018-02-18T03:19:11.875Z,15.32
2018-02-18T03:21:38.292Z,13.52
2018-02-18T03:24:06.124Z,14.05
2018-02-18T03:26:33.410Z,13.40
2018-02-18T03:29:00.598Z,16.85
2018-02-18T03:31:27.280Z,13.43
2018-02-18T03:33:53.695Z,13.10
2018-02-18T03:36:20.121Z,14.18
2018-02-18T03:38:46.583Z,11.30
2018-02-18T03:41:13.053Z,13.68
2018-02-18T03:43:39.489Z,13.82
2018-02-18T03:46:06.872Z,12.32
2018-02-18T03:48:34.057Z,16.17
2018-02-18T03:51:01.219Z,13.77
2018-02-18T03:53:27.731Z,14.77
2018-02-18T03:55:54.190Z,13.85
2018-02-18T03:58:20.583Z,14.50
2018-02-18T04:00:47.263Z,13.18
2018-02-18T04:03:13.841Z,14.23
2018-02-18T04:05:41.726Z,12.93
2018-02-18T04:08:08.970Z,13.77
2018-02-18T04:10:35.428Z,14.25
2018-02-18T04:13:02.623Z,12.57
2018-02-18T04:15:29.055Z,12.57
2018-02-18T04:17:56.223Z,12.60
2018-02-18T04:20:22.693Z,13.77
2018-02-18T04:22:49.121Z,13.30
2018-02-18T04:25:15.566Z,12.88
2018-02-18T04:27:42.001Z,13.00
2018-02-18T04:30:09.007Z,11.52
2018-02-18T04:32:35.423Z,10.60
2018-02-18T04:35:01.848Z,12.80
2018-02-18T04:37:28.267Z,13.85
2018-02-18T04:39:54.681Z,12.45
2018-02-18T04:42:21.196Z,12.35
2018-02-18T04:44:47.671Z,12.85
2018-02-18T04:47:14.078Z,11.70
2018-02-18T04:49:40.517Z,11.90
2018-02-18T04:52:07.399Z,10.73
2018-02-18T04:54:34.768Z,11.25
2018-02-18T04:57:01.187Z,12.43
2018-02-18T04:59:27.692Z,12.85
2018-02-18T05:01:54.130Z,11.35
2018-02-18T05:04:21.283Z,11.90
2018-02-18T05:06:48.476Z,12.60
2018-02-18T05:09:14.872Z,11.38
2018-02-18T05:11:41.350Z,12.65
2018-02-18T05:14:08.571Z,11.50
2018-02-18T05:16:34.999Z,12.93
2018-02-18T05:19:01.434Z,12.20
2018-02-18T05:21:28.284Z,11.18
2018-02-18T05:23:55.510Z,12.30
2018-02-18T05:26:22.316Z,12.45
2018-02-18T05:28:50.381Z,10.45
2018-02-18T05:31:16.978Z,11.45
2018-02-18T05:33:44.141Z,12.90
2018-02-18T05:36:11.311Z,12.30
2018-02-18T05:38:37.753Z,13.45
2018-02-18T05:41:05.788Z,12.32
2018-02-18T05:43:32.360Z,12.05
2018-02-18T05:45:59.534Z,9.50
2018-02-18T05:48:28.495Z,11.57
2018-02-18T05:50:58.704Z,12.57
2018-02-18T05:53:25.140Z,11.55
2018-02-18T05:55:51.554Z,12.13
2018-02-18T05:58:18.026Z,12.20
2018-02-18T06:00:44.501Z,11.50
2018-02-18T06:03:10.951Z,12.13
2018-02-18T06:05:37.386Z,13.80
2018-02-18T06:08:05.061Z,10.55
2018-02-18T06:10:31.748Z,11.98
2018-02-18T06:13:00.491Z,12.95
2018-02-18T06:15:28.816Z,13.13
2018-02-18T06:17:55.999Z,11.95
2018-02-18T06:20:28.948Z,12.65
2018-02-18T06:22:56.589Z,11.88
2018-02-18T06:25:24.078Z,11.00
2018-02-18T06:27:51.536Z,12.60
2018-02-18T06:30:19.754Z,12.35
2018-02-18T06:32:47.166Z,13.00
2018-02-18T06:35:13.760Z,12.65
2018-02-18T06:37:40.234Z,11.93
2018-02-18T06:40:07.637Z,13.50
2018-02-18T06:42:34.882Z,12.15
2018-02-18T06:45:02.273Z,12.65
2018-02-18T06:47:29.639Z,12.43
2018-02-18T06:49:56.214Z,12.63
2018-02-18T06:52:23.707Z,13.90
2018-02-18T06:54:50.295Z,10.60
2018-02-18T06:57:20.243Z,11.70
2018-02-18T06:59:47.683Z,12.35
2018-02-18T07:02:14.246Z,12.40
2018-02-18T07:04:40.827Z,10.82
2018-02-18T07:07:07.426Z,13.10
2018-02-18T07:09:34.630Z,12.13
2018-02-18T07:12:01.832Z,11.70
2018-02-18T07:14:28.630Z,13.27
2018-02-18T07:16:55.151Z,12.90
2018-02-18T07:19:21.819Z,11.57
2018-02-18T07:21:48.349Z,12.48
2018-02-18T07:24:15.069Z,13.57
2018-02-18T07:26:41.724Z,12.50
2018-02-18T07:29:10.058Z,12.82
2018-02-18T07:31:38.303Z,13.90
2018-02-18T07:34:05.553Z,11.20
2018-02-18T07:36:33.707Z,13.20
2018-02-18T07:39:01.416Z,12.48
2018-02-18T07:41:29.188Z,12.65
2018-02-18T07:43:55.847Z,12.65
2018-02-18T07:46:24.133Z,13.75
2018-02-18T07:48:52.421Z,11.70
2018-02-18T07:51:19.476Z,12.60
2018-02-18T07:53:46.944Z,14.50
2018-02-18T07:56:14.334Z,13.62
2018-02-18T07:58:41.601Z,12.40
2018-02-18T08:01:12.545Z,10.60
2018-02-18T08:03:40.014Z,14.50
2018-02-18T08:06:07.492Z,14.68
2018-02-18T08:08:34.885Z,12.77
2018-02-18T08:11:01.396Z,12.02
2018-02-18T08:13:28.256Z,12.55
2018-02-18T08:15:54.857Z,13.88
2018-02-18T08:18:21.452Z,13.60
2018-02-18T08:20:48.146Z,14.27
2018-02-18T08:23:14.712Z,13.53
2018-02-18T08:25:41.486Z,14.35
2018-02-18T08:28:09.013Z,14.02
2018-02-18T08:30:35.598Z,13.52
2018-02-18T08:33:04.099Z,13.83
2018-02-18T08:35:30.747Z,14.33
2018-02-18T08:37:57.524Z,13.60
2018-02-18T08:40:24.875Z,11.27
2018-02-18T08:42:51.984Z,12.03
2018-02-18T08:45:18.547Z,13.47
2018-02-18T08:47:45.275Z,11.30
2018-02-18T08:50:12.767Z,13.93
2018-02-18T08:52:39.439Z,12.83
2018-02-18T08:55:06.744Z,13.93
2018-02-18T08:57:34.949Z,13.70
2018-02-18T09:00:07.014Z,12.93
2018-02-18T09:02:37.277Z,12.40
2018-02-18T09:05:06.481Z,13.20
2018-02-18T09:07:33.826Z,12.27
2018-02-18T09:10:01.783Z,12.83
2018-02-18T09:12:30.055Z,13.57
2018-02-18T09:14:56.680Z,13.30
2018-02-18T09:17:24.631Z,12.70
2018-02-18T09:19:51.427Z,13.10
2018-02-18T09:22:18.024Z,13.90
2018-02-18T09:24:44.619Z,11.27
2018-02-18T09:27:12.070Z,13.37
2018-02-18T09:29:38.625Z,14.07
2018-02-18T09:32:05.569Z,13.40
2018-02-18T09:34:32.383Z,14.27
2018-02-18T09:36:59.763Z,12.93
2018-02-18T09:39:26.501Z,14.20
2018-02-18T09:41:54.209Z,12.90
2018-02-18T09:44:22.385Z,14.03
2018-02-18T09:46:48.972Z,12.40
2018-02-18T09:49:15.502Z,12.80
2018-02-18T09:51:42.784Z,14.53
2018-02-18T09:54:09.389Z,14.30
2018-02-18T09:56:36.006Z,14.00
2018-02-18T09:59:02.604Z,13.93
2018-02-18T10:01:29.515Z,13.53
2018-02-18T10:04:02.451Z,14.70
2018-02-18T10:06:29.029Z,14.70
2018-02-18T10:08:56.152Z,13.97
2018-02-18T10:11:22.872Z,14.73
2018-02-18T10:13:49.526Z,13.60
2018-02-18T10:16:18.119Z,14.63
2018-02-18T10:18:44.680Z,15.03
2018-02-18T10:21:11.386Z,13.23
2018-02-18T10:23:38.682Z,13.27
2018-02-18T10:26:05.364Z,15.40
2018-02-18T10:28:31.959Z,14.13
2018-02-18T10:30:59.454Z,15.60
2018-02-18T10:33:25.982Z,15.77
2018-02-18T10:35:53.232Z,14.27
2018-02-18T10:38:19.939Z,16.13
2018-02-18T10:40:47.845Z,15.90
2018-02-18T10:43:17.274Z,16.90
2018-02-18T10:45:44.692Z,14.83
2018-02-18T10:48:12.787Z,15.37
2018-02-18T10:50:39.594Z,18.07
2018-02-18T10:53:07.422Z,14.10
2018-02-18T10:55:34.108Z,15.60
2018-02-18T10:58:01.433Z,14.63
2018-02-18T11:00:28.245Z,15.60
2018-02-18T11:02:55.427Z,15.20
2018-02-18T11:05:23.464Z,15.83
2018-02-18T11:07:51.112Z,16.20
2018-02-18T11:10:19.480Z,14.87
2018-02-18T11:12:47.661Z,16.00
2018-02-18T11:15:15.165Z,16.37
2018-02-18T11:17:41.804Z,14.87
2018-02-18T11:20:08.733Z,15.20
2018-02-18T11:27:46.992Z,15.20
2018-02-18T11:30:13.487Z,16.10
2018-02-18T11:32:40.123Z,14.93
2018-02-18T11:35:06.650Z,16.03
2018-02-18T11:37:33.275Z,15.43
2018-02-18T11:40:00.152Z,14.43
2018-02-18T11:42:26.788Z,15.03
2018-02-18T11:44:53.545Z,16.67
2018-02-18T11:47:21.767Z,15.43
2018-02-18T11:49:49.043Z,16.63
2018-02-18T11:52:15.929Z,15.83
2018-02-18T11:54:42.522Z,15.57
2018-02-18T11:57:09.171Z,15.43
2018-02-18T11:59:36.467Z,16.70
2018-02-18T12:02:03.085Z,17.07
2018-02-18T12:04:30.509Z,14.80
2018-02-18T12:06:57.011Z,16.87
2018-02-18T12:09:24.440Z,14.43
2018-02-18T12:11:51.009Z,15.37
2018-02-18T12:14:17.810Z,14.77
2018-02-18T12:16:45.137Z,16.20
2018-02-18T12:19:12.460Z,15.33
2018-02-18T12:21:39.094Z,15.50
2018-02-18T12:24:07.416Z,16.03
2018-02-18T12:26:34.676Z,16.70
2018-02-18T12:29:01.578Z,15.17
2018-02-18T12:31:28.128Z,13.63
2018-02-18T12:33:54.881Z,14.30
2018-02-18T12:36:22.026Z,16.50
2018-02-18T12:38:48.566Z,15.93
2018-02-18T12:41:15.818Z,14.80
2018-02-18T12:43:42.354Z,16.80
2018-02-18T12:46:09.714Z,15.77
2018-02-18T12:48:37.069Z,15.80
2018-02-18T12:51:05.299Z,15.30
2018-02-18T12:53:32.375Z,15.00
2018-02-18T12:56:00.154Z,15.73
2018-02-18T12:58:28.567Z,15.40
2018-02-18T13:00:55.974Z,14.80
2018-02-18T13:03:23.302Z,17.63
2018-02-18T13:05:50.220Z,16.60
2018-02-18T13:08:17.548Z,14.90
2018-02-18T13:10:46.290Z,14.50
2018-02-18T13:13:13.575Z,14.43
2018-02-18T13:15:40.142Z,14.47
2018-02-18T13:18:07.177Z,16.27
2018-02-18T13:20:34.456Z,15.17
2018-02-18T13:23:00.955Z,15.00
2018-02-18T13:25:27.435Z,15.40
2018-02-18T13:27:53.997Z,16.13
2018-02-18T13:30:21.367Z,15.07
2018-02-18T13:32:47.999Z,14.97
2018-02-18T13:35:16.059Z,15.90
2018-02-18T13:37:42.678Z,14.90
2018-02-18T13:40:09.127Z,14.77
2018-02-18T13:42:35.691Z,14.83
2018-02-18T13:45:02.239Z,15.27
2018-02-18T13:47:28.706Z,15.97
2018-02-18T13:49:55.233Z,15.50
2018-02-18T13:52:22.471Z,15.87
2018-02-18T13:54:48.989Z,16.03
2018-02-18T13:57:15.515Z,15.90
2018-02-18T13:59:42.780Z,16.90
2018-02-18T14:02:09.273Z,14.73
2018-02-18T14:04:35.870Z,15.10
2018-02-18T14:07:02.371Z,16.43
2018-02-18T14:09:28.904Z,14.20
2018-02-18T14:11:55.710Z,17.07
2018-02-18T14:14:22.327Z,15.73
2018-02-18T14:16:48.868Z,13.90
2018-02-18T14:19:15.395Z,13.70
2018-02-18T14:21:42.637Z,13.40
2018-02-18T14:24:09.964Z,14.27
2018-02-18T14:26:36.713Z,15.07
2018-02-18T14:29:04.644Z,13.50
2018-02-18T14:31:31.957Z,15.00
2018-02-18T14:33:58.651Z,16.13
2018-02-18T14:36:25.600Z,14.57
2018-02-18T14:38:52.142Z,13.87
2018-02-18T14:41:31.930Z,15.80
2018-02-18T14:44:10.572Z,13.27
2018-02-18T14:46:49.748Z,14.10
2018-02-18T14:49:29.541Z,14.27
2018-02-18T14:52:08.530Z,14.47
2018-02-18T14:54:47.296Z,13.60
2018-02-18T14:57:26.088Z,13.77
2018-02-18T14:59:52.600Z,14.00
2018-02-18T15:02:19.970Z,13.43
2018-02-18T15:04:50.837Z,15.23
2018-02-18T15:07:18.189Z,12.53
2018-02-18T15:09:44.853Z,13.60
2018-02-18T15:12:11.397Z,12.47
2018-02-18T15:14:37.906Z,14.00
2018-02-18T15:17:04.712Z,15.70
2018-02-18T15:19:31.298Z,14.47
2018-02-18T15:21:57.898Z,14.53
2018-02-18T15:24:24.470Z,13.50
2018-02-18T15:26:51.125Z,14.93
2018-02-18T15:29:17.846Z,14.30
2018-02-18T15:31:44.586Z,11.97
2018-02-18T15:34:11.282Z,13.40
2018-02-18T15:36:37.758Z,14.83
2018-02-18T15:39:05.105Z,13.57
2018-02-18T15:41:31.765Z,12.10
2018-02-18T15:43:59.224Z,11.67
2018-02-18T15:46:26.012Z,12.23
2018-02-18T15:48:53.137Z,12.00
2018-02-18T15:51:20.873Z,12.90
2018-02-18T15:53:48.456Z,13.63
2018-02-18T15:56:14.952Z,12.63
2018-02-18T15:58:43.678Z,13.20
2018-02-18T16:01:11.020Z,11.70
2018-02-18T16:03:38.359Z,11.07
2018-02-18T16:06:05.429Z,11.00
2018-02-18T16:08:32.680Z,11.10
2018-02-18T16:10:59.335Z,10.23
2018-02-18T16:13:27.015Z,11.40
2018-02-18T16:15:53.535Z,11.77
2018-02-18T18:19:16.702Z,13.50
2018-02-18T18:21:43.242Z,11.70
2018-02-18T18:24:09.805Z,12.17
2018-02-18T18:26:36.617Z,12.60
2018-02-18T18:29:03.472Z,12.73
2018-02-18T18:31:29.976Z,10.20
2018-02-18T18:33:56.447Z,14.20
2018-02-18T18:36:23.737Z,12.77
2018-02-18T18:38:51.584Z,14.30
2018-02-18T18:41:18.057Z,13.87
2018-02-18T18:43:44.541Z,12.63
2018-02-18T18:46:11.031Z,13.60
2018-02-18T18:48:37.463Z,11.77
2018-02-18T18:51:04.332Z,12.10
2018-02-18T18:53:30.993Z,13.97
2018-02-18T18:55:57.526Z,13.13
2018-02-18T18:58:24.122Z,13.90
2018-02-18T19:00:50.635Z,14.43
2018-02-18T19:03:17.195Z,13.37
2018-02-18T19:05:43.705Z,14.23
2018-02-18T19:08:10.155Z,14.90
2018-02-18T19:10:36.601Z,19.97
2018-02-18T19:13:04.278Z,23.00
2018-02-18T19:15:31.616Z,18.87
2018-02-18T19:17:58.121Z,14.70
2018-02-18T19:20:25.314Z,15.97
2018-02-18T19:22:51.794Z,17.63
2018-02-18T19:25:18.259Z,16.80
2018-02-18T19:27:45.473Z,16.77
2018-02-18T19:30:11.963Z,17.97
2018-02-18T19:32:39.164Z,16.70
2018-02-18T19:35:06.350Z,16.83
2018-02-18T19:37:33.330Z,18.60
2018-02-18T19:40:00.502Z,19.93
2018-02-18T19:42:27.715Z,17.00
2018-02-18T19:44:54.188Z,18.30
2018-02-18T19:47:20.883Z,19.03
2018-02-18T19:49:48.064Z,18.30
2018-02-18T19:52:14.521Z,18.13
2018-02-18T19:54:41.027Z,18.40
2018-02-18T19:57:07.458Z,17.83
2018-02-18T19:59:33.949Z,19.17
2018-02-18T20:02:00.464Z,18.87
2018-02-18T20:04:26.947Z,19.30
2018-02-18T20:06:53.351Z,18.30
2018-02-18T20:09:20.577Z,21.07
2018-02-18T20:11:47.242Z,20.60
2018-02-18T20:14:13.735Z,20.50
2018-02-18T20:16:40.523Z,19.17
2018-02-18T20:19:06.939Z,20.63
2018-02-18T20:21:33.415Z,19.93
2018-02-18T20:23:59.817Z,20.80
2018-02-18T20:26:26.300Z,23.60
2018-02-18T20:28:52.767Z,19.80
2018-02-18T20:31:19.949Z,22.57
2018-02-18T20:33:47.245Z,20.27
2018-02-18T20:36:13.753Z,21.87
2018-02-18T20:38:40.905Z,21.43
2018-02-18T20:41:08.101Z,21.27
2018-02-18T20:43:35.252Z,19.27
2018-02-18T20:46:01.744Z,19.40
2018-02-18T20:48:28.162Z,19.83
2018-02-18T20:50:54.622Z,20.43
2018-02-18T20:53:21.065Z,18.40
2018-02-18T20:55:47.536Z,17.77
2018-02-18T20:58:14.728Z,19.83
2018-02-18T21:00:41.220Z,18.53
2018-02-18T21:03:14.831Z,19.50
2018-02-18T21:05:41.287Z,21.27
2018-02-18T21:08:07.915Z,19.13
2018-02-18T21:10:34.339Z,17.30
2018-02-18T21:13:05.110Z,19.87
2018-02-18T21:15:31.530Z,19.67
2018-02-18T21:17:57.997Z,19.67
2018-02-18T21:20:24.429Z,16.63
2018-02-18T21:22:50.986Z,19.33
2018-02-18T21:25:17.471Z,18.00
2018-02-18T21:27:43.955Z,20.60
2018-02-18T21:30:10.998Z,17.60
2018-02-18T21:32:37.437Z,18.07
2018-02-18T21:35:05.085Z,17.03
2018-02-18T21:37:31.693Z,18.00
2018-02-18T21:39:58.256Z,16.30
2018-02-18T21:42:24.695Z,18.03
2018-02-18T21:44:51.182Z,18.70
2018-02-18T21:47:17.619Z,19.20
2018-02-18T21:49:44.125Z,18.83
2018-02-18T21:52:11.290Z,21.07
2018-02-18T21:54:37.789Z,20.73
2018-02-18T21:57:05.083Z,16.90
2018-02-18T21:59:32.291Z,19.23
2018-02-18T22:01:58.757Z,20.27
2018-02-18T22:04:25.209Z,19.60
2018-02-18T22:06:51.742Z,17.27
2018-02-18T22:09:18.167Z,18.63
2018-02-18T22:11:44.607Z,19.37
2018-02-18T22:14:11.845Z,17.10
2018-02-18T22:16:38.285Z,19.27
2018-02-18T22:19:05.244Z,18.57
2018-02-18T22:21:31.688Z,17.10
2018-02-18T22:23:59.264Z,18.07
2018-02-18T22:26:25.783Z,20.57
2018-02-18T22:28:52.200Z,20.73
2018-02-18T22:31:18.665Z,18.80
2018-02-18T22:33:45.119Z,20.93
2018-02-18T22:36:11.541Z,20.27
2018-02-18T22:38:38.003Z,17.20
2018-02-18T22:41:04.988Z,18.60
2018-02-18T22:43:31.411Z,18.93
2018-02-18T22:45:57.839Z,20.20
2018-02-18T22:48:24.321Z,22.20
2018-02-18T22:50:50.738Z,20.80
2018-02-18T22:53:17.238Z,20.70
2018-02-18T22:55:43.744Z,18.73
2018-02-18T22:58:10.243Z,21.67
2018-02-18T23:00:36.665Z,20.80
2018-02-18T23:03:03.383Z,19.30
2018-02-18T23:05:35.909Z,21.95
2018-02-18T23:08:02.825Z,20.67
2018-02-18T23:10:30.093Z,22.40
2018-02-18T23:12:56.566Z,21.50
2018-02-18T23:15:23.753Z,21.05
2018-02-18T23:17:50.163Z,20.40
2018-02-18T23:20:16.634Z,20.45
2018-02-18T23:22:43.089Z,24.55
2018-02-18T23:25:09.565Z,23.10
2018-02-18T23:27:36.021Z,23.00
2018-02-18T23:30:03.517Z,20.50
2018-02-18T23:32:30.725Z,22.87
2018-02-18T23:34:57.187Z,23.67
2018-02-18T23:37:24.418Z,23.42
2018-02-18T23:39:50.817Z,20.13
2018-02-18T23:42:18.001Z,21.30
2018-02-18T23:44:44.425Z,21.70
2018-02-18T23:47:10.891Z,20.77
2018-02-18T23:49:37.356Z,20.67
2018-02-18T23:54:41.994Z,21.75
2018-02-18T23:57:08.430Z,23.52
2018-02-18T23:59:35.622Z,21.33
